createdAt,value
2024-04-08T00:00:43.502Z,-8.49
2024-04-08T00:05:46.562Z,-8.42
2024-04-08T00:10:49.557Z,-8.27
2024-04-08T00:16:00.201Z,-8.12
2024-04-08T00:21:07.255Z,-7.99
2024-04-08T00:26:10.614Z,-7.81
2024-04-08T00:31:14.817Z,-7.63
2024-04-08T00:36:17.883Z,-7.53
2024-04-08T00:41:20.850Z,-7.43
2024-04-08T00:46:24.964Z,-7.32
2024-04-08T00:51:28.646Z,-7.24
2024-04-08T00:56:31.927Z,-7.14
2024-04-08T01:01:35.445Z,-7.00
2024-04-08T01:06:38.997Z,-6.73
2024-04-08T01:11:44.716Z,-6.55
2024-04-08T01:16:48.742Z,-6.36
2024-04-08T01:21:52.320Z,-6.19
2024-04-08T01:26:55.220Z,-5.99
2024-04-08T01:31:58.220Z,-5.88
2024-04-08T01:37:01.708Z,-5.76
2024-04-08T01:42:04.833Z,-5.66
2024-04-08T01:47:08.657Z,-5.54
2024-04-08T01:52:11.592Z,-5.49
2024-04-08T01:57:14.514Z,-5.28
2024-04-08T02:02:18.103Z,-5.13
2024-04-08T02:07:21.000Z,-4.97
2024-04-08T02:12:23.867Z,-4.84
2024-04-08T02:17:27.743Z,-4.71
2024-04-08T02:22:30.788Z,-4.52
2024-04-08T02:27:34.204Z,-4.34
2024-04-08T02:32:37.223Z,-4.10
2024-04-08T02:37:40.104Z,-3.99
2024-04-08T02:42:44.545Z,-3.96
2024-04-08T02:47:47.558Z,-3.79
2024-04-08T02:52:50.446Z,-3.61
2024-04-08T02:57:53.998Z,-3.39
2024-04-08T03:02:56.956Z,-3.19
2024-04-08T03:08:00.118Z,-3.00
2024-04-08T03:13:03.212Z,-2.79
2024-04-08T03:18:08.432Z,-2.59
2024-04-08T03:23:11.339Z,-2.45
2024-04-08T03:28:15.088Z,-2.29
2024-04-08T03:33:23.355Z,-2.11
2024-04-08T03:38:26.220Z,-1.94
2024-04-08T03:43:30.071Z,-1.83
2024-04-08T03:48:34.844Z,-1.74
2024-04-08T03:53:38.095Z,-1.60
2024-04-08T03:58:43.076Z,-1.50
2024-04-08T04:03:45.976Z,-1.41
2024-04-08T04:08:49.903Z,-1.33
2024-04-08T04:13:53.238Z,-1.16
2024-04-08T04:18:57.081Z,-1.01
2024-04-08T04:24:00.035Z,-0.93
2024-04-08T04:29:03.202Z,-0.88
2024-04-08T04:34:06.127Z,-0.79
2024-04-08T04:39:11.841Z,-0.66
2024-04-08T04:44:14.940Z,-0.62
2024-04-08T04:49:19.133Z,-0.53
2024-04-08T04:54:21.955Z,-0.31
2024-04-08T04:59:25.314Z,-0.20
2024-04-08T05:04:28.381Z,-0.15
2024-04-08T05:09:31.346Z,0.04
2024-04-08T05:14:35.542Z,0.18
2024-04-08T05:19:38.766Z,0.28
2024-04-08T05:24:41.640Z,0.44
2024-04-08T05:29:44.906Z,0.64
2024-04-08T05:34:47.806Z,0.87
2024-04-08T05:39:51.076Z,0.99
2024-04-08T05:44:57.698Z,1.18
2024-04-08T05:50:01.165Z,1.34
2024-04-08T05:55:06.054Z,1.43
2024-04-08T06:00:12.429Z,1.46
2024-04-08T06:05:15.475Z,1.60
2024-04-08T06:10:22.238Z,1.75
2024-04-08T06:15:25.770Z,1.88
2024-04-08T06:20:29.442Z,1.99
2024-04-08T06:25:33.790Z,2.10
2024-04-08T06:30:37.878Z,2.12
2024-04-08T06:35:48.529Z,2.09
2024-04-08T06:40:51.904Z,2.04
2024-04-08T06:46:02.908Z,2.10
2024-04-08T06:51:06.241Z,2.29
2024-04-08T06:56:10.088Z,2.47
2024-04-08T07:01:14.039Z,2.54
2024-04-08T07:06:17.256Z,2.76
2024-04-08T07:11:20.257Z,2.99
2024-04-08T07:16:23.424Z,3.07
2024-04-08T07:21:26.489Z,3.20
2024-04-08T07:26:30.582Z,3.32
2024-04-08T07:31:34.762Z,3.58
2024-04-08T07:36:37.951Z,3.69
2024-04-08T07:41:41.029Z,3.73
2024-04-08T07:46:44.353Z,3.90
2024-04-08T07:51:47.271Z,4.01
2024-04-08T07:56:50.317Z,4.23
2024-04-08T08:01:53.700Z,4.46
2024-04-08T08:06:56.689Z,4.71
2024-04-08T08:11:59.738Z,4.92
2024-04-08T08:17:04.130Z,5.16
2024-04-08T08:22:08.563Z,5.37
2024-04-08T08:27:11.446Z,5.75
2024-04-08T08:32:15.418Z,5.93
2024-04-08T08:37:18.428Z,5.90
2024-04-08T08:42:23.239Z,5.95
2024-04-08T08:47:26.238Z,6.28
2024-04-08T08:52:29.731Z,7.04
2024-04-08T08:57:33.765Z,7.93
2024-04-08T09:02:39.641Z,7.83
2024-04-08T09:07:42.754Z,7.63
2024-04-08T09:12:46.105Z,7.82
2024-04-08T09:17:49.295Z,7.50
2024-04-08T09:22:52.228Z,7.34
2024-04-08T09:27:56.004Z,7.34
2024-04-08T09:32:59.456Z,7.24
2024-04-08T09:38:04.081Z,7.27
2024-04-08T09:43:08.791Z,7.99
2024-04-08T09:48:15.130Z,8.09
2024-04-08T09:53:18.578Z,7.95
2024-04-08T09:58:23.388Z,7.94
2024-04-08T10:03:27.237Z,8.15
2024-04-08T10:08:30.490Z,8.23
2024-04-08T10:13:33.715Z,8.17
2024-04-08T10:18:53.472Z,8.47
2024-04-08T10:23:56.783Z,8.74
2024-04-08T10:29:00.173Z,8.76
2024-04-08T10:34:03.200Z,8.79
2024-04-08T10:39:10.901Z,8.72
2024-04-08T10:44:14.225Z,8.55
2024-04-08T10:49:17.815Z,8.47
2024-04-08T10:54:20.955Z,8.40
2024-04-08T10:59:24.461Z,8.35
2024-04-08T11:04:29.990Z,8.52
2024-04-08T11:09:32.840Z,8.67
2024-04-08T11:14:36.469Z,8.66
2024-04-08T11:19:41.295Z,8.34
2024-04-08T11:24:44.490Z,7.77
2024-04-08T11:29:47.951Z,7.29
2024-04-08T11:34:51.899Z,7.19
2024-04-08T11:39:54.782Z,7.41
2024-04-08T11:45:06.916Z,7.55
2024-04-08T11:50:11.755Z,7.52
2024-04-08T11:55:14.682Z,7.19
2024-04-08T12:00:22.453Z,7.08
2024-04-08T12:05:25.585Z,7.07
2024-04-08T12:10:28.470Z,7.05
2024-04-08T12:15:31.625Z,7.00
2024-04-08T12:20:34.765Z,6.87
2024-04-08T12:25:38.273Z,6.77
2024-04-08T12:30:44.246Z,6.71
2024-04-08T12:35:47.896Z,6.60
2024-04-08T12:40:51.689Z,6.50
2024-04-08T12:45:56.686Z,6.44
2024-04-08T12:50:59.784Z,6.36
2024-04-08T12:56:05.000Z,6.28
2024-04-08T13:01:08.577Z,6.16
2024-04-08T13:06:12.101Z,6.05
2024-04-08T13:11:16.727Z,5.92
2024-04-08T13:16:20.682Z,5.71
2024-04-08T13:21:27.739Z,5.61
2024-04-08T13:26:33.593Z,5.46
2024-04-08T13:31:36.855Z,5.38
2024-04-08T13:36:39.766Z,5.36
2024-04-08T13:41:42.698Z,5.26
2024-04-08T13:46:46.018Z,5.26
2024-04-08T13:51:59.494Z,5.26
2024-04-08T13:57:02.775Z,5.22
2024-04-08T14:02:07.043Z,5.20
2024-04-08T14:07:10.130Z,5.20
2024-04-08T14:12:13.088Z,5.21
2024-04-08T14:17:18.785Z,5.25
2024-04-08T14:22:23.891Z,5.22
2024-04-08T14:27:26.842Z,5.22
2024-04-08T14:32:30.243Z,5.21
2024-04-08T14:37:50.819Z,5.23
2024-04-08T14:42:57.254Z,5.20
2024-04-08T14:48:01.557Z,5.20
2024-04-08T14:53:05.773Z,5.15
2024-04-08T14:58:09.341Z,5.16
2024-04-08T15:03:13.475Z,5.13
2024-04-08T15:08:18.562Z,5.03
2024-04-08T15:13:22.179Z,4.87
2024-04-08T15:18:26.973Z,4.49
2024-04-08T15:23:32.391Z,3.95
2024-04-08T15:28:35.677Z,3.43
2024-04-08T15:33:38.814Z,3.06
2024-04-08T15:38:43.146Z,2.81
2024-04-08T15:43:46.672Z,2.52
2024-04-08T15:48:50.890Z,2.18
2024-04-08T15:53:54.172Z,2.05
2024-04-08T15:58:57.914Z,1.83
2024-04-08T16:04:01.265Z,1.73
2024-04-08T16:09:10.460Z,1.66
2024-04-08T16:14:13.790Z,1.46
2024-04-08T16:19:16.622Z,1.44
2024-04-08T16:24:20.157Z,1.31
2024-04-08T16:29:23.359Z,1.34
2024-04-08T16:34:26.408Z,1.28
2024-04-08T16:39:29.619Z,1.20
2024-04-08T16:44:34.382Z,1.31
2024-04-08T16:49:37.340Z,1.23
2024-04-08T16:54:42.797Z,1.14
2024-04-08T16:59:45.829Z,1.02
2024-04-08T17:04:49.059Z,0.98
2024-04-08T17:09:52.191Z,0.85
2024-04-08T17:14:55.526Z,0.87
2024-04-08T17:19:58.311Z,0.66
2024-04-08T17:25:01.535Z,0.64
2024-04-08T17:30:07.792Z,0.67
2024-04-08T17:35:10.916Z,0.54
2024-04-08T17:40:13.774Z,0.51
2024-04-08T17:45:17.269Z,0.36
2024-04-08T17:50:21.387Z,0.27
2024-04-08T17:55:25.504Z,0.31
2024-04-08T18:00:28.588Z,0.33
2024-04-08T18:05:31.869Z,0.30
2024-04-08T18:10:35.056Z,0.29
2024-04-08T18:15:39.036Z,0.32
2024-04-08T18:20:42.630Z,0.30
2024-04-08T18:25:55.424Z,0.14
2024-04-08T18:31:11.700Z,-0.09
2024-04-08T18:36:15.923Z,-0.07
2024-04-08T18:41:22.212Z,-0.10
2024-04-08T18:46:26.652Z,-0.24
2024-04-08T18:51:29.839Z,-0.37
2024-04-08T18:56:32.828Z,-0.38
2024-04-08T19:01:36.599Z,-0.29
2024-04-08T19:06:39.737Z,-0.39
2024-04-08T19:11:48.338Z,-0.51
2024-04-08T19:16:58.569Z,-0.66
2024-04-08T19:22:01.679Z,-0.70
2024-04-08T19:27:04.938Z,-0.76
2024-04-08T19:32:08.433Z,-0.73
2024-04-08T19:37:11.602Z,-0.67
2024-04-08T19:42:14.831Z,-0.65
2024-04-08T19:47:18.367Z,-0.65
2024-04-08T19:52:21.971Z,-0.69
2024-04-08T19:57:25.115Z,-0.78
2024-04-08T20:02:28.246Z,-0.87
2024-04-08T20:07:31.301Z,-0.84
2024-04-08T20:12:34.356Z,-0.80
2024-04-08T20:17:37.975Z,-0.73
2024-04-08T20:22:40.961Z,-0.68
2024-04-08T20:27:43.953Z,-0.66
2024-04-08T20:32:47.215Z,-0.68
2024-04-08T20:37:50.190Z,-0.61
2024-04-08T20:42:53.833Z,-0.47
2024-04-08T20:47:57.623Z,-0.44
2024-04-08T20:53:00.564Z,-0.35
2024-04-08T20:58:05.914Z,0.13
2024-04-08T21:03:08.982Z,0.60
2024-04-08T21:08:12.338Z,0.98
2024-04-08T21:13:15.875Z,1.19
2024-04-08T21:18:18.927Z,1.39
2024-04-08T21:23:22.273Z,1.48
2024-04-08T21:28:26.131Z,1.59
2024-04-08T21:33:29.137Z,1.63
2024-04-08T21:38:32.341Z,1.62
2024-04-08T21:43:36.019Z,1.62
2024-04-08T21:48:39.499Z,1.65
2024-04-08T21:53:42.696Z,1.67
2024-04-08T21:58:46.597Z,1.73
2024-04-08T22:03:52.541Z,1.76
2024-04-08T22:08:55.524Z,1.80
2024-04-08T22:13:58.562Z,1.88
2024-04-08T22:19:02.095Z,1.94
2024-04-08T22:24:05.207Z,1.99
2024-04-08T22:29:08.573Z,2.04
2024-04-08T22:34:12.042Z,2.13
2024-04-08T22:39:15.495Z,2.17
2024-04-08T22:44:19.325Z,2.18
2024-04-08T22:49:22.523Z,2.13
2024-04-08T22:54:25.437Z,2.06
2024-04-08T22:59:29.790Z,1.99
2024-04-08T23:04:33.017Z,1.98
2024-04-08T23:09:36.013Z,1.96
2024-04-08T23:14:39.439Z,1.98
2024-04-08T23:19:42.391Z,2.00
2024-04-08T23:24:45.772Z,1.95
2024-04-08T23:29:51.889Z,1.83
2024-04-08T23:34:56.725Z,1.61
2024-04-08T23:39:59.844Z,1.46
2024-04-08T23:45:02.967Z,1.51
2024-04-08T23:50:08.104Z,1.52
2024-04-08T23:55:11.209Z,1.62
